createdAt,value
2019-03-29T00:01:57.572Z,93.04
2019-03-29T00:07:18.710Z,92.79
2019-03-29T00:12:40.200Z,92.62
2019-03-29T00:18:01.360Z,92.79
2019-03-29T00:23:23.107Z,93.47
2019-03-29T00:28:44.050Z,93.23
2019-03-29T00:34:04.871Z,93.14
2019-03-29T00:39:25.515Z,92.84
2019-03-29T00:44:46.758Z,92.71
2019-03-29T00:50:08.153Z,93.07
2019-03-29T00:55:28.730Z,93.09
2019-03-29T01:00:49.877Z,93.16
2019-03-29T01:06:10.836Z,92.95
2019-03-29T01:11:32.021Z,92.74
2019-03-29T01:16:53.868Z,92.49
2019-03-29T01:22:14.908Z,93.05
2019-03-29T01:27:36.253Z,92.92
2019-03-29T01:32:57.381Z,92.44
2019-03-29T01:38:22.138Z,92.69
2019-03-29T01:43:41.440Z,93.00
2019-03-29T01:49:02.924Z,93.30
2019-03-29T01:54:23.949Z,93.36
2019-03-29T01:59:45.062Z,93.44
2019-03-29T02:05:06.200Z,93.48
2019-03-29T02:10:27.133Z,93.62
2019-03-29T02:15:48.316Z,93.42
2019-03-29T02:21:09.665Z,93.08
2019-03-29T02:26:31.004Z,92.92
2019-03-29T02:31:52.326Z,92.93
2019-03-29T02:37:13.503Z,93.34
2019-03-29T02:42:34.536Z,92.82
2019-03-29T02:47:55.927Z,92.56
2019-03-29T02:53:16.892Z,92.67
2019-03-29T02:58:38.441Z,92.72
2019-03-29T03:03:59.614Z,92.92
2019-03-29T03:09:20.783Z,92.41
2019-03-29T03:14:42.133Z,92.84
2019-03-29T03:20:04.638Z,93.01
2019-03-29T03:25:25.495Z,93.29
2019-03-29T03:30:46.621Z,93.52
2019-03-29T03:36:07.718Z,93.55
2019-03-29T03:41:28.956Z,93.42
2019-03-29T03:46:51.170Z,93.36
2019-03-29T03:52:12.626Z,93.03
2019-03-29T03:57:34.566Z,93.12
2019-03-29T04:02:55.719Z,93.75
2019-03-29T04:08:17.019Z,93.39
2019-03-29T04:13:38.011Z,93.12
2019-03-29T04:18:58.840Z,92.84
2019-03-29T04:24:19.941Z,92.29
2019-03-29T04:29:41.373Z,91.89
2019-03-29T04:35:02.580Z,92.06
2019-03-29T04:40:23.759Z,91.82
2019-03-29T04:45:44.816Z,92.16
2019-03-29T04:51:05.938Z,92.75
2019-03-29T04:56:27.042Z,92.54
2019-03-29T05:01:48.078Z,92.74
2019-03-29T05:07:09.329Z,93.66
2019-03-29T05:12:30.636Z,94.46
2019-03-29T05:17:52.013Z,94.48
2019-03-29T05:23:13.117Z,94.68
2019-03-29T05:28:35.527Z,94.88
2019-03-29T05:33:56.732Z,94.06
2019-03-29T05:39:17.969Z,93.94
2019-03-29T05:44:40.782Z,93.60
2019-03-29T05:50:01.496Z,93.63
2019-03-29T05:55:32.409Z,93.37
2019-03-29T06:00:45.256Z,93.35
2019-03-29T06:06:06.043Z,93.20
2019-03-29T06:11:26.725Z,91.37
2019-03-29T06:16:47.650Z,90.33
2019-03-29T06:22:08.637Z,89.96
2019-03-29T06:27:29.759Z,90.03
2019-03-29T06:32:51.314Z,89.12
2019-03-29T06:38:13.281Z,88.81
2019-03-29T06:43:34.136Z,88.90
2019-03-29T06:48:55.132Z,88.45
2019-03-29T06:54:15.680Z,87.90
2019-03-29T06:59:36.811Z,86.92
2019-03-29T07:04:57.655Z,86.23
2019-03-29T07:10:18.925Z,86.23
2019-03-29T07:15:41.200Z,86.47
2019-03-29T07:21:02.029Z,86.03
2019-03-29T07:26:23.083Z,84.07
2019-03-29T07:31:44.131Z,84.92
2019-03-29T07:37:05.998Z,83.93
2019-03-29T07:42:26.793Z,83.09
2019-03-29T07:47:47.704Z,82.10
2019-03-29T07:53:08.639Z,82.49
2019-03-29T07:58:29.876Z,82.34
2019-03-29T08:03:51.420Z,81.20
2019-03-29T08:09:22.144Z,80.96
2019-03-29T08:14:36.266Z,78.88
2019-03-29T08:20:24.554Z,80.75
2019-03-29T08:25:20.073Z,79.32
2019-03-29T08:30:41.063Z,78.21
2019-03-29T08:36:02.530Z,77.97
2019-03-29T08:41:23.536Z,76.36
2019-03-29T08:46:44.996Z,75.48
2019-03-29T08:52:06.104Z,73.10
2019-03-29T08:57:27.302Z,73.81
2019-03-29T09:02:48.497Z,72.99
2019-03-29T09:08:09.809Z,70.31
2019-03-29T09:13:30.969Z,67.96
2019-03-29T09:18:52.105Z,66.30
2019-03-29T09:24:21.981Z,66.28
2019-03-29T09:29:36.105Z,65.54
2019-03-29T09:34:57.310Z,64.49
2019-03-29T09:40:18.917Z,63.76
2019-03-29T09:45:41.310Z,65.37
2019-03-29T09:51:02.442Z,64.19
2019-03-29T09:56:37.508Z,63.83
2019-03-29T10:01:45.892Z,60.75
2019-03-29T10:07:08.198Z,60.55
2019-03-29T10:12:42.275Z,55.63
2019-03-29T10:17:51.887Z,57.24
2019-03-29T10:23:12.578Z,55.28
2019-03-29T10:28:33.711Z,53.58
2019-03-29T10:33:54.674Z,49.54
2019-03-29T10:39:16.708Z,46.83
2019-03-29T10:44:37.390Z,47.08
2019-03-29T10:49:58.357Z,46.72
2019-03-29T10:55:19.630Z,45.33
2019-03-29T11:00:41.129Z,45.24
2019-03-29T11:06:01.945Z,45.73
2019-03-29T11:11:22.737Z,44.03
2019-03-29T11:16:43.900Z,43.40
2019-03-29T11:22:04.928Z,41.53
2019-03-29T11:27:25.653Z,41.54
2019-03-29T11:32:46.668Z,42.31
2019-03-29T11:38:07.400Z,42.59
2019-03-29T11:43:28.925Z,41.91
2019-03-29T11:48:49.711Z,42.01
2019-03-29T11:54:10.858Z,40.36
2019-03-29T11:59:32.059Z,42.54
2019-03-29T12:04:53.499Z,42.20
2019-03-29T12:10:14.532Z,41.56
2019-03-29T12:15:35.743Z,41.25
2019-03-29T12:20:56.952Z,41.04
2019-03-29T12:26:18.130Z,39.01
2019-03-29T12:31:38.848Z,41.73
2019-03-29T12:36:59.998Z,42.50
2019-03-29T12:42:21.163Z,38.06
2019-03-29T12:47:42.047Z,37.38
2019-03-29T12:53:03.137Z,35.89
2019-03-29T12:58:23.894Z,37.58
2019-03-29T13:03:44.805Z,40.63
2019-03-29T13:09:07.004Z,41.19
2019-03-29T13:14:28.026Z,42.30
2019-03-29T13:19:50.218Z,41.07
2019-03-29T13:25:11.719Z,38.87
2019-03-29T13:30:33.962Z,34.89
2019-03-29T13:35:55.238Z,41.49
2019-03-29T13:41:16.401Z,37.73
2019-03-29T13:46:37.566Z,36.01
2019-03-29T13:51:59.019Z,38.25
2019-03-29T13:57:20.217Z,38.02
2019-03-29T14:02:41.175Z,39.04
2019-03-29T14:08:02.328Z,36.64
2019-03-29T14:13:24.515Z,31.91
2019-03-29T14:18:45.852Z,29.33
2019-03-29T14:24:06.756Z,30.33
2019-03-29T14:29:27.896Z,28.56
2019-03-29T14:34:48.814Z,27.41
2019-03-29T14:40:10.527Z,26.33
2019-03-29T14:45:31.687Z,27.37
2019-03-29T14:50:52.818Z,25.52
2019-03-29T14:56:14.024Z,26.00
2019-03-29T15:01:35.181Z,23.83
2019-03-29T15:06:56.656Z,23.96
2019-03-29T15:12:17.531Z,24.59
2019-03-29T15:17:38.789Z,23.43
2019-03-29T15:22:59.769Z,23.82
2019-03-29T15:28:20.922Z,23.68
2019-03-29T15:33:42.159Z,23.47
2019-03-29T15:39:04.031Z,23.50
2019-03-29T15:44:26.176Z,23.78
2019-03-29T15:49:55.782Z,22.70
2019-03-29T15:55:11.446Z,23.37
2019-03-29T16:00:32.640Z,24.21
2019-03-29T16:05:53.595Z,23.01
2019-03-29T16:11:17.401Z,23.44
2019-03-29T16:16:59.904Z,23.02
2019-03-29T16:22:20.980Z,23.57
2019-03-29T16:27:42.221Z,23.77
2019-03-29T16:33:03.600Z,23.18
2019-03-29T16:38:24.517Z,24.22
2019-03-29T16:43:45.346Z,23.78
2019-03-29T16:49:06.071Z,24.79
2019-03-29T16:54:27.499Z,27.62
2019-03-29T16:59:48.631Z,28.57
2019-03-29T17:05:10.471Z,28.53
2019-03-29T17:10:31.709Z,29.72
2019-03-29T17:16:01.601Z,30.43
2019-03-29T17:21:15.811Z,33.10
2019-03-29T17:26:36.625Z,34.94
2019-03-29T17:31:57.618Z,39.56
2019-03-29T17:37:19.072Z,44.00
2019-03-29T17:42:40.282Z,45.64
2019-03-29T17:48:01.501Z,48.49
2019-03-29T17:53:22.603Z,50.09
2019-03-29T17:58:43.541Z,51.04
2019-03-29T18:04:04.735Z,52.50
2019-03-29T18:09:26.005Z,54.07
2019-03-29T18:14:46.851Z,52.95
2019-03-29T18:20:08.385Z,54.01
2019-03-29T18:25:29.256Z,54.61
2019-03-29T18:30:50.599Z,54.85
2019-03-29T18:36:11.830Z,56.08
2019-03-29T18:41:33.198Z,57.01
2019-03-29T18:46:53.990Z,58.21
2019-03-29T18:52:15.142Z,58.96
2019-03-29T18:57:36.301Z,59.19
2019-03-29T19:02:57.345Z,59.86
2019-03-29T19:08:18.739Z,59.62
2019-03-29T19:13:39.492Z,59.60
2019-03-29T19:19:10.013Z,59.63
2019-03-29T19:24:23.390Z,60.78
2019-03-29T19:29:44.538Z,61.05
2019-03-29T19:35:06.244Z,61.51
2019-03-29T19:40:27.369Z,60.89
2019-03-29T19:45:49.156Z,61.03
2019-03-29T19:51:09.706Z,61.35
2019-03-29T19:56:31.058Z,60.81
2019-03-29T20:01:53.227Z,60.78
2019-03-29T20:07:14.393Z,60.85
2019-03-29T20:19:12.542Z,62.74
2019-03-29T20:24:33.948Z,62.17
2019-03-29T20:29:55.355Z,62.32
2019-03-29T20:35:16.399Z,62.98
2019-03-29T20:40:37.266Z,64.09
2019-03-29T20:46:04.695Z,65.45
2019-03-29T20:51:25.410Z,66.42
2019-03-29T20:56:46.495Z,67.19
2019-03-29T21:02:07.435Z,66.92
2019-03-29T21:07:28.471Z,66.89
2019-03-29T21:12:49.184Z,66.93
2019-03-29T21:18:10.101Z,66.94
2019-03-29T21:23:30.889Z,67.12
2019-03-29T21:28:53.047Z,67.68
2019-03-29T21:34:14.144Z,67.50
2019-03-29T21:39:35.421Z,68.03
2019-03-29T21:44:56.337Z,67.62
2019-03-29T21:50:17.955Z,68.89
2019-03-29T21:55:38.658Z,69.20
2019-03-29T22:00:59.287Z,68.79
2019-03-29T22:06:20.497Z,69.02
2019-03-29T22:11:41.485Z,69.05
2019-03-29T22:17:02.785Z,69.28
2019-03-29T22:22:23.836Z,70.06
2019-03-29T22:27:45.022Z,70.48
2019-03-29T22:33:06.288Z,70.83
2019-03-29T22:38:27.540Z,71.01
2019-03-29T22:43:49.077Z,71.41
2019-03-29T22:49:10.036Z,72.00
2019-03-29T22:54:31.175Z,71.35
2019-03-29T22:59:52.224Z,71.85
2019-03-29T23:05:13.330Z,71.86
2019-03-29T23:10:34.194Z,71.84
2019-03-29T23:16:03.198Z,71.08
2019-03-29T23:21:24.435Z,71.14
2019-03-29T23:26:45.327Z,71.27
2019-03-29T23:32:06.625Z,71.58
2019-03-29T23:37:27.679Z,71.30
2019-03-29T23:42:48.810Z,71.99
2019-03-29T23:48:10.229Z,72.37
2019-03-29T23:53:31.174Z,71.78
2019-03-29T23:58:51.960Z,72.12
